sensor_id;sensor_type;location;lat;lon;timestamp;P1;durP1;ratioP1;P2;durP2;ratioP2
75316;SDS011;63913;51.492;10.368;2023-02-13T00:00:28;12.95;;;5.18;;
75316;SDS011;63913;51.492;10.368;2023-02-13T00:02:54;10.48;;;4.53;;
75316;SDS011;63913;51.492;10.368;2023-02-13T00:05:19;11.02;;;5.38;;
75316;SDS011;63913;51.492;10.368;2023-02-13T00:07:44;13.77;;;5.60;;
75316;SDS011;63913;51.492;10.368;2023-02-13T00:10:10;11.60;;;4.77;;
75316;SDS011;63913;51.492;10.368;2023-02-13T00:12:35;10.10;;;4.30;;
75316;SDS011;63913;51.492;10.368;2023-02-13T00:15:01;9.50;;;4.50;;
75316;SDS011;63913;51.492;10.368;2023-02-13T00:17:27;10.27;;;4.35;;
75316;SDS011;63913;51.492;10.368;2023-02-13T00:19:52;9.50;;;4.30;;
75316;SDS011;63913;51.492;10.368;2023-02-13T00:22:17;10.27;;;4.38;;
75316;SDS011;63913;51.492;10.368;2023-02-13T00:24:43;9.47;;;4.50;;
75316;SDS011;63913;51.492;10.368;2023-02-13T00:27:08;7.95;;;4.15;;
75316;SDS011;63913;51.492;10.368;2023-02-13T00:29:34;8.75;;;4.25;;
75316;SDS011;63913;51.492;10.368;2023-02-13T00:31:59;7.23;;;3.53;;
75316;SDS011;63913;51.492;10.368;2023-02-13T00:34:25;9.38;;;4.22;;
75316;SDS011;63913;51.492;10.368;2023-02-13T00:36:51;8.80;;;4.07;;
75316;SDS011;63913;51.492;10.368;2023-02-13T00:39:16;9.55;;;4.53;;
75316;SDS011;63913;51.492;10.368;2023-02-13T00:41:41;11.43;;;4.17;;
75316;SDS011;63913;51.492;10.368;2023-02-13T00:44:08;8.65;;;3.78;;
75316;SDS011;63913;51.492;10.368;2023-02-13T00:46:33;7.88;;;4.03;;
75316;SDS011;63913;51.492;10.368;2023-02-13T00:48:58;8.50;;;3.80;;
75316;SDS011;63913;51.492;10.368;2023-02-13T00:51:24;10.57;;;3.33;;
75316;SDS011;63913;51.492;10.368;2023-02-13T00:53:49;9.02;;;3.40;;
75316;SDS011;63913;51.492;10.368;2023-02-13T00:56:15;9.73;;;3.97;;
75316;SDS011;63913;51.492;10.368;2023-02-13T00:58:43;10.02;;;4.13;;
75316;SDS011;63913;51.492;10.368;2023-02-13T01:01:09;8.23;;;3.75;;
75316;SDS011;63913;51.492;10.368;2023-02-13T01:03:34;11.90;;;4.88;;
75316;SDS011;63913;51.492;10.368;2023-02-13T01:05:59;11.90;;;3.95;;
75316;SDS011;63913;51.492;10.368;2023-02-13T01:08:25;11.03;;;3.77;;
75316;SDS011;63913;51.492;10.368;2023-02-13T01:10:52;10.82;;;4.45;;
75316;SDS011;63913;51.492;10.368;2023-02-13T01:13:18;15.27;;;6.10;;
75316;SDS011;63913;51.492;10.368;2023-02-13T01:15:44;9.68;;;4.30;;
75316;SDS011;63913;51.492;10.368;2023-02-13T01:18:11;10.15;;;3.85;;
75316;SDS011;63913;51.492;10.368;2023-02-13T01:20:38;8.73;;;4.07;;
75316;SDS011;63913;51.492;10.368;2023-02-13T01:23:04;12.25;;;4.03;;
75316;SDS011;63913;51.492;10.368;2023-02-13T01:25:29;10.10;;;3.83;;
75316;SDS011;63913;51.492;10.368;2023-02-13T01:27:56;11.43;;;3.90;;
75316;SDS011;63913;51.492;10.368;2023-02-13T01:30:21;9.35;;;3.85;;
75316;SDS011;63913;51.492;10.368;2023-02-13T01:32:47;8.20;;;3.33;;
75316;SDS011;63913;51.492;10.368;2023-02-13T01:35:12;10.05;;;3.92;;
75316;SDS011;63913;51.492;10.368;2023-02-13T01:37:39;11.95;;;4.43;;
75316;SDS011;63913;51.492;10.368;2023-02-13T01:40:06;9.27;;;3.88;;
75316;SDS011;63913;51.492;10.368;2023-02-13T01:42:33;8.63;;;3.70;;
75316;SDS011;63913;51.492;10.368;2023-02-13T01:47:44;7.93;;;3.70;;
75316;SDS011;63913;51.492;10.368;2023-02-13T01:50:24;8.88;;;3.80;;
75316;SDS011;63913;51.492;10.368;2023-02-13T01:52:52;12.35;;;3.22;;
75316;SDS011;63913;51.492;10.368;2023-02-13T01:57:50;9.48;;;3.40;;
75316;SDS011;63913;51.492;10.368;2023-02-13T02:00:20;7.80;;;3.80;;
75316;SDS011;63913;51.492;10.368;2023-02-13T02:02:49;10.20;;;3.47;;
75316;SDS011;63913;51.492;10.368;2023-02-13T02:05:21;9.73;;;3.90;;
75316;SDS011;63913;51.492;10.368;2023-02-13T02:07:50;9.07;;;3.35;;
75316;SDS011;63913;51.492;10.368;2023-02-13T02:10:21;8.13;;;3.75;;
75316;SDS011;63913;51.492;10.368;2023-02-13T02:12:48;11.23;;;4.32;;
75316;SDS011;63913;51.492;10.368;2023-02-13T02:15:20;8.55;;;4.00;;
75316;SDS011;63913;51.492;10.368;2023-02-13T02:17:45;10.95;;;3.88;;
75316;SDS011;63913;51.492;10.368;2023-02-13T02:25:59;8.18;;;3.53;;
75316;SDS011;63913;51.492;10.368;2023-02-13T02:34:24;9.23;;;3.80;;
75316;SDS011;63913;51.492;10.368;2023-02-13T02:37:15;8.88;;;3.47;;
75316;SDS011;63913;51.492;10.368;2023-02-13T02:40:07;8.25;;;3.63;;
75316;SDS011;63913;51.492;10.368;2023-02-13T02:45:57;9.38;;;4.00;;
75316;SDS011;63913;51.492;10.368;2023-02-13T02:48:31;13.32;;;4.70;;
75316;SDS011;63913;51.492;10.368;2023-02-13T02:51:23;14.15;;;4.82;;
75316;SDS011;63913;51.492;10.368;2023-02-13T02:54:28;8.45;;;3.55;;
75316;SDS011;63913;51.492;10.368;2023-02-13T02:57:12;13.68;;;4.05;;
75316;SDS011;63913;51.492;10.368;2023-02-13T02:59:42;9.63;;;3.88;;
75316;SDS011;63913;51.492;10.368;2023-02-13T03:02:29;8.30;;;3.13;;
75316;SDS011;63913;51.492;10.368;2023-02-13T03:05:19;9.90;;;3.45;;
75316;SDS011;63913;51.492;10.368;2023-02-13T03:08:07;8.18;;;3.20;;
75316;SDS011;63913;51.492;10.368;2023-02-13T03:10:34;6.80;;;2.70;;
75316;SDS011;63913;51.492;10.368;2023-02-13T03:13:40;8.82;;;3.88;;
75316;SDS011;63913;51.492;10.368;2023-02-13T03:16:14;9.40;;;3.60;;
75316;SDS011;63913;51.492;10.368;2023-02-13T03:19:02;10.68;;;4.00;;
75316;SDS011;63913;51.492;10.368;2023-02-13T03:21:58;10.63;;;3.60;;
75316;SDS011;63913;51.492;10.368;2023-02-13T03:24:50;8.60;;;3.63;;
75316;SDS011;63913;51.492;10.368;2023-02-13T03:27:31;7.82;;;3.50;;
75316;SDS011;63913;51.492;10.368;2023-02-13T03:30:28;8.70;;;3.53;;
75316;SDS011;63913;51.492;10.368;2023-02-13T03:36:27;9.55;;;4.10;;
75316;SDS011;63913;51.492;10.368;2023-02-13T03:39:22;9.48;;;4.57;;
75316;SDS011;63913;51.492;10.368;2023-02-13T03:42:00;9.52;;;3.78;;
75316;SDS011;63913;51.492;10.368;2023-02-13T03:44:32;7.88;;;3.38;;
75316;SDS011;63913;51.492;10.368;2023-02-13T03:47:03;7.45;;;3.40;;
75316;SDS011;63913;51.492;10.368;2023-02-13T03:49:34;6.72;;;3.17;;
75316;SDS011;63913;51.492;10.368;2023-02-13T03:52:42;11.18;;;3.78;;
75316;SDS011;63913;51.492;10.368;2023-02-13T03:55:20;8.77;;;3.00;;
75316;SDS011;63913;51.492;10.368;2023-02-13T03:58:11;6.90;;;2.97;;
75316;SDS011;63913;51.492;10.368;2023-02-13T04:00:58;8.65;;;4.05;;
75316;SDS011;63913;51.492;10.368;2023-02-13T04:06:12;8.63;;;3.40;;
75316;SDS011;63913;51.492;10.368;2023-02-13T04:08:40;8.02;;;3.90;;
75316;SDS011;63913;51.492;10.368;2023-02-13T04:11:11;7.00;;;2.92;;
75316;SDS011;63913;51.492;10.368;2023-02-13T04:16:26;5.13;;;2.20;;
75316;SDS011;63913;51.492;10.368;2023-02-13T04:18:57;9.52;;;3.28;;
75316;SDS011;63913;51.492;10.368;2023-02-13T04:21:25;5.72;;;2.53;;
75316;SDS011;63913;51.492;10.368;2023-02-13T04:23:50;5.97;;;2.85;;
75316;SDS011;63913;51.492;10.368;2023-02-13T04:26:16;4.57;;;2.40;;
75316;SDS011;63913;51.492;10.368;2023-02-13T04:28:44;4.05;;;1.98;;
75316;SDS011;63913;51.492;10.368;2023-02-13T04:31:10;3.70;;;1.80;;
75316;SDS011;63913;51.492;10.368;2023-02-13T04:33:35;4.07;;;2.05;;
75316;SDS011;63913;51.492;10.368;2023-02-13T04:36:01;4.05;;;1.90;;
75316;SDS011;63913;51.492;10.368;2023-02-13T04:38:26;5.43;;;1.95;;
75316;SDS011;63913;51.492;10.368;2023-02-13T04:40:51;5.33;;;2.43;;
75316;SDS011;63913;51.492;10.368;2023-02-13T04:43:17;2.25;;;1.30;;
75316;SDS011;63913;51.492;10.368;2023-02-13T04:45:42;1.77;;;1.30;;
75316;SDS011;63913;51.492;10.368;2023-02-13T04:48:08;3.15;;;1.45;;
75316;SDS011;63913;51.492;10.368;2023-02-13T04:50:33;2.45;;;1.20;;
75316;SDS011;63913;51.492;10.368;2023-02-13T04:52:59;2.17;;;1.35;;
75316;SDS011;63913;51.492;10.368;2023-02-13T04:55:24;3.40;;;1.30;;
75316;SDS011;63913;51.492;10.368;2023-02-13T04:57:51;2.40;;;1.40;;
75316;SDS011;63913;51.492;10.368;2023-02-13T05:00:18;1.83;;;1.10;;
75316;SDS011;63913;51.492;10.368;2023-02-13T05:02:47;1.63;;;0.93;;
75316;SDS011;63913;51.492;10.368;2023-02-13T05:05:12;1.97;;;1.20;;
75316;SDS011;63913;51.492;10.368;2023-02-13T05:07:38;2.17;;;1.40;;
75316;SDS011;63913;51.492;10.368;2023-02-13T05:10:03;4.72;;;1.40;;
75316;SDS011;63913;51.492;10.368;2023-02-13T05:12:29;2.35;;;1.10;;
75316;SDS011;63913;51.492;10.368;2023-02-13T05:14:54;2.35;;;1.20;;
75316;SDS011;63913;51.492;10.368;2023-02-13T05:17:20;2.40;;;1.50;;
75316;SDS011;63913;51.492;10.368;2023-02-13T05:19:45;1.58;;;1.00;;
75316;SDS011;63913;51.492;10.368;2023-02-13T05:22:10;12.00;;;5.55;;
75316;SDS011;63913;51.492;10.368;2023-02-13T05:24:54;3.95;;;1.42;;
75316;SDS011;63913;51.492;10.368;2023-02-13T05:27:20;1.77;;;1.13;;
75316;SDS011;63913;51.492;10.368;2023-02-13T05:29:45;1.70;;;1.03;;
75316;SDS011;63913;51.492;10.368;2023-02-13T05:32:11;1.20;;;0.80;;
75316;SDS011;63913;51.492;10.368;2023-02-13T05:34:36;3.17;;;1.30;;
75316;SDS011;63913;51.492;10.368;2023-02-13T05:37:01;2.07;;;1.20;;
75316;SDS011;63913;51.492;10.368;2023-02-13T05:39:27;2.40;;;1.33;;
75316;SDS011;63913;51.492;10.368;2023-02-13T05:41:52;2.57;;;1.50;;
75316;SDS011;63913;51.492;10.368;2023-02-13T05:44:17;3.03;;;1.30;;
75316;SDS011;63913;51.492;10.368;2023-02-13T05:46:43;3.33;;;1.80;;
75316;SDS011;63913;51.492;10.368;2023-02-13T05:49:09;3.90;;;1.88;;
75316;SDS011;63913;51.492;10.368;2023-02-13T05:51:36;3.58;;;1.80;;
75316;SDS011;63913;51.492;10.368;2023-02-13T05:54:02;3.47;;;1.87;;
75316;SDS011;63913;51.492;10.368;2023-02-13T05:56:27;4.07;;;1.80;;
75316;SDS011;63913;51.492;10.368;2023-02-13T05:58:53;2.97;;;1.70;;
75316;SDS011;63913;51.492;10.368;2023-02-13T06:01:19;2.65;;;1.40;;
75316;SDS011;63913;51.492;10.368;2023-02-13T06:03:46;2.80;;;1.75;;
75316;SDS011;63913;51.492;10.368;2023-02-13T06:06:12;4.97;;;1.75;;
75316;SDS011;63913;51.492;10.368;2023-02-13T06:08:37;1.95;;;1.20;;
75316;SDS011;63913;51.492;10.368;2023-02-13T06:11:02;2.17;;;1.60;;
75316;SDS011;63913;51.492;10.368;2023-02-13T06:13:28;2.00;;;1.20;;
75316;SDS011;63913;51.492;10.368;2023-02-13T06:15:54;2.22;;;1.77;;
75316;SDS011;63913;51.492;10.368;2023-02-13T06:18:20;1.88;;;1.23;;
75316;SDS011;63913;51.492;10.368;2023-02-13T06:20:45;2.33;;;1.20;;
75316;SDS011;63913;51.492;10.368;2023-02-13T06:23:10;3.10;;;1.35;;
75316;SDS011;63913;51.492;10.368;2023-02-13T06:25:36;2.20;;;1.40;;
75316;SDS011;63913;51.492;10.368;2023-02-13T06:28:02;2.10;;;1.23;;
75316;SDS011;63913;51.492;10.368;2023-02-13T06:30:28;1.17;;;0.90;;
75316;SDS011;63913;51.492;10.368;2023-02-13T06:32:54;2.03;;;1.17;;
75316;SDS011;63913;51.492;10.368;2023-02-13T06:35:19;2.53;;;1.30;;
75316;SDS011;63913;51.492;10.368;2023-02-13T06:37:44;2.83;;;1.30;;
75316;SDS011;63913;51.492;10.368;2023-02-13T06:40:10;2.13;;;1.00;;
75316;SDS011;63913;51.492;10.368;2023-02-13T06:42:37;1.05;;;0.90;;
75316;SDS011;63913;51.492;10.368;2023-02-13T06:45:02;1.90;;;1.20;;
75316;SDS011;63913;51.492;10.368;2023-02-13T06:47:28;1.60;;;1.02;;
75316;SDS011;63913;51.492;10.368;2023-02-13T06:49:53;1.60;;;1.10;;
75316;SDS011;63913;51.492;10.368;2023-02-13T06:52:19;1.50;;;1.10;;
75316;SDS011;63913;51.492;10.368;2023-02-13T06:54:45;1.75;;;1.33;;
75316;SDS011;63913;51.492;10.368;2023-02-13T06:57:10;1.92;;;1.25;;
75316;SDS011;63913;51.492;10.368;2023-02-13T06:59:36;2.43;;;1.30;;
75316;SDS011;63913;51.492;10.368;2023-02-13T07:02:01;1.63;;;1.17;;
75316;SDS011;63913;51.492;10.368;2023-02-13T07:04:27;2.28;;;1.40;;
75316;SDS011;63913;51.492;10.368;2023-02-13T07:06:53;2.33;;;1.25;;
75316;SDS011;63913;51.492;10.368;2023-02-13T07:09:19;2.55;;;1.33;;
75316;SDS011;63913;51.492;10.368;2023-02-13T07:11:44;1.67;;;1.20;;
75316;SDS011;63913;51.492;10.368;2023-02-13T07:14:10;2.30;;;1.33;;
75316;SDS011;63913;51.492;10.368;2023-02-13T07:16:35;1.47;;;1.23;;
75316;SDS011;63913;51.492;10.368;2023-02-13T07:19:00;3.10;;;1.60;;
75316;SDS011;63913;51.492;10.368;2023-02-13T07:21:26;2.88;;;1.48;;
75316;SDS011;63913;51.492;10.368;2023-02-13T07:23:51;2.28;;;1.40;;
75316;SDS011;63913;51.492;10.368;2023-02-13T07:26:17;2.10;;;1.40;;
75316;SDS011;63913;51.492;10.368;2023-02-13T07:28:42;4.22;;;2.20;;
75316;SDS011;63913;51.492;10.368;2023-02-13T07:31:08;3.97;;;2.10;;
75316;SDS011;63913;51.492;10.368;2023-02-13T07:33:33;4.70;;;2.22;;
75316;SDS011;63913;51.492;10.368;2023-02-13T07:35:59;3.47;;;1.88;;
75316;SDS011;63913;51.492;10.368;2023-02-13T07:38:27;6.70;;;2.55;;
75316;SDS011;63913;51.492;10.368;2023-02-13T07:40:53;5.50;;;2.70;;
75316;SDS011;63913;51.492;10.368;2023-02-13T07:43:18;6.77;;;2.80;;
75316;SDS011;63913;51.492;10.368;2023-02-13T07:45:43;8.60;;;3.00;;
75316;SDS011;63913;51.492;10.368;2023-02-13T07:48:10;5.20;;;2.60;;
75316;SDS011;63913;51.492;10.368;2023-02-13T07:50:36;3.13;;;1.95;;
75316;SDS011;63913;51.492;10.368;2023-02-13T07:53:01;3.73;;;2.43;;
75316;SDS011;63913;51.492;10.368;2023-02-13T07:55:27;4.88;;;2.35;;
75316;SDS011;63913;51.492;10.368;2023-02-13T07:57:54;3.15;;;1.85;;
75316;SDS011;63913;51.492;10.368;2023-02-13T08:00:20;3.60;;;2.10;;
75316;SDS011;63913;51.492;10.368;2023-02-13T08:02:46;3.38;;;1.88;;
75316;SDS011;63913;51.492;10.368;2023-02-13T08:05:11;3.03;;;1.73;;
75316;SDS011;63913;51.492;10.368;2023-02-13T08:07:36;4.17;;;2.40;;
75316;SDS011;63913;51.492;10.368;2023-02-13T08:10:02;14.00;;;6.63;;
75316;SDS011;63913;51.492;10.368;2023-02-13T08:12:48;10.65;;;6.03;;
75316;SDS011;63913;51.492;10.368;2023-02-13T08:15:14;12.32;;;6.70;;
75316;SDS011;63913;51.492;10.368;2023-02-13T08:17:40;13.13;;;8.05;;
75316;SDS011;63913;51.492;10.368;2023-02-13T08:20:06;5.32;;;2.83;;
75316;SDS011;63913;51.492;10.368;2023-02-13T08:22:35;4.50;;;3.08;;
75316;SDS011;63913;51.492;10.368;2023-02-13T08:25:02;4.50;;;2.60;;
75316;SDS011;63913;51.492;10.368;2023-02-13T08:27:28;3.63;;;2.20;;
75316;SDS011;63913;51.492;10.368;2023-02-13T08:29:54;3.45;;;1.88;;
75316;SDS011;63913;51.492;10.368;2023-02-13T08:32:20;3.90;;;2.30;;
75316;SDS011;63913;51.492;10.368;2023-02-13T08:34:46;6.45;;;3.95;;
75316;SDS011;63913;51.492;10.368;2023-02-13T08:37:11;5.65;;;3.28;;
75316;SDS011;63913;51.492;10.368;2023-02-13T08:39:36;2.80;;;1.70;;
75316;SDS011;63913;51.492;10.368;2023-02-13T08:42:02;3.67;;;2.00;;
75316;SDS011;63913;51.492;10.368;2023-02-13T08:44:27;6.88;;;3.55;;
75316;SDS011;63913;51.492;10.368;2023-02-13T08:46:52;10.90;;;4.88;;
75316;SDS011;63913;51.492;10.368;2023-02-13T08:49:18;13.93;;;6.22;;
75316;SDS011;63913;51.492;10.368;2023-02-13T08:51:43;12.45;;;3.95;;
75316;SDS011;63913;51.492;10.368;2023-02-13T08:54:09;7.43;;;4.00;;
75316;SDS011;63913;51.492;10.368;2023-02-13T08:56:34;5.93;;;2.83;;
75316;SDS011;63913;51.492;10.368;2023-02-13T08:58:59;4.97;;;2.10;;
75316;SDS011;63913;51.492;10.368;2023-02-13T09:01:25;4.65;;;2.33;;
75316;SDS011;63913;51.492;10.368;2023-02-13T09:03:50;5.75;;;2.90;;
75316;SDS011;63913;51.492;10.368;2023-02-13T09:06:16;7.55;;;4.28;;
75316;SDS011;63913;51.492;10.368;2023-02-13T09:08:41;4.82;;;2.40;;
75316;SDS011;63913;51.492;10.368;2023-02-13T09:11:07;5.65;;;2.60;;
75316;SDS011;63913;51.492;10.368;2023-02-13T09:13:33;3.10;;;2.05;;
75316;SDS011;63913;51.492;10.368;2023-02-13T09:15:59;4.57;;;2.28;;
75316;SDS011;63913;51.492;10.368;2023-02-13T09:18:26;4.88;;;2.53;;
75316;SDS011;63913;51.492;10.368;2023-02-13T09:21:05;7.43;;;3.53;;
75316;SDS011;63913;51.492;10.368;2023-02-13T09:23:33;7.97;;;4.05;;
75316;SDS011;63913;51.492;10.368;2023-02-13T09:25:59;9.10;;;4.38;;
75316;SDS011;63913;51.492;10.368;2023-02-13T09:28:26;8.02;;;3.72;;
75316;SDS011;63913;51.492;10.368;2023-02-13T09:30:52;7.65;;;3.15;;
75316;SDS011;63913;51.492;10.368;2023-02-13T09:33:17;5.82;;;2.80;;
75316;SDS011;63913;51.492;10.368;2023-02-13T09:35:42;4.37;;;2.40;;
75316;SDS011;63913;51.492;10.368;2023-02-13T09:38:08;7.90;;;4.00;;
75316;SDS011;63913;51.492;10.368;2023-02-13T09:43:32;5.13;;;3.03;;
75316;SDS011;63913;51.492;10.368;2023-02-13T09:46:06;6.43;;;2.85;;
75316;SDS011;63913;51.492;10.368;2023-02-13T09:48:43;4.72;;;2.85;;
75316;SDS011;63913;51.492;10.368;2023-02-13T09:51:13;7.13;;;3.15;;
75316;SDS011;63913;51.492;10.368;2023-02-13T09:53:41;6.20;;;3.05;;
75316;SDS011;63913;51.492;10.368;2023-02-13T09:56:15;4.10;;;2.40;;
75316;SDS011;63913;51.492;10.368;2023-02-13T09:58:46;5.63;;;3.00;;
75316;SDS011;63913;51.492;10.368;2023-02-13T10:03:46;24.95;;;11.60;;
75316;SDS011;63913;51.492;10.368;2023-02-13T10:06:27;11.27;;;4.65;;
75316;SDS011;63913;51.492;10.368;2023-02-13T10:14:22;9.65;;;5.05;;
75316;SDS011;63913;51.492;10.368;2023-02-13T10:19:40;6.65;;;3.60;;
75316;SDS011;63913;51.492;10.368;2023-02-13T10:22:13;8.05;;;3.53;;
75316;SDS011;63913;51.492;10.368;2023-02-13T10:24:49;5.53;;;3.17;;
75316;SDS011;63913;51.492;10.368;2023-02-13T10:27:51;7.95;;;3.70;;
75316;SDS011;63913;51.492;10.368;2023-02-13T10:30:29;6.18;;;3.55;;
75316;SDS011;63913;51.492;10.368;2023-02-13T10:33:01;7.05;;;3.13;;
75316;SDS011;63913;51.492;10.368;2023-02-13T10:35:58;4.97;;;2.72;;
75316;SDS011;63913;51.492;10.368;2023-02-13T10:38:27;6.22;;;3.28;;
75316;SDS011;63913;51.492;10.368;2023-02-13T10:41:02;6.30;;;3.10;;
75316;SDS011;63913;51.492;10.368;2023-02-13T10:43:29;6.82;;;3.10;;
75316;SDS011;63913;51.492;10.368;2023-02-13T10:46:09;7.95;;;4.47;;
75316;SDS011;63913;51.492;10.368;2023-02-13T10:48:47;7.28;;;3.90;;
75316;SDS011;63913;51.492;10.368;2023-02-13T10:51:44;5.45;;;2.80;;
75316;SDS011;63913;51.492;10.368;2023-02-13T10:54:39;5.60;;;2.40;;
75316;SDS011;63913;51.492;10.368;2023-02-13T10:57:24;8.95;;;4.97;;
75316;SDS011;63913;51.492;10.368;2023-02-13T11:00:06;5.95;;;3.17;;
75316;SDS011;63913;51.492;10.368;2023-02-13T11:02:39;8.68;;;3.50;;
75316;SDS011;63913;51.492;10.368;2023-02-13T11:05:19;7.85;;;3.63;;
75316;SDS011;63913;51.492;10.368;2023-02-13T11:07:47;12.45;;;3.67;;
75316;SDS011;63913;51.492;10.368;2023-02-13T11:10:23;7.57;;;3.53;;
75316;SDS011;63913;51.492;10.368;2023-02-13T11:12:50;12.73;;;5.13;;
75316;SDS011;63913;51.492;10.368;2023-02-13T11:15:26;6.95;;;3.30;;
75316;SDS011;63913;51.492;10.368;2023-02-13T11:18:00;6.55;;;3.13;;
75316;SDS011;63913;51.492;10.368;2023-02-13T11:20:38;7.63;;;3.55;;
75316;SDS011;63913;51.492;10.368;2023-02-13T11:25:56;8.52;;;4.10;;
75316;SDS011;63913;51.492;10.368;2023-02-13T11:28:21;7.13;;;3.42;;
75316;SDS011;63913;51.492;10.368;2023-02-13T11:30:47;6.40;;;3.53;;
75316;SDS011;63913;51.492;10.368;2023-02-13T11:35:41;5.72;;;3.35;;
75316;SDS011;63913;51.492;10.368;2023-02-13T11:40:39;7.88;;;3.47;;
75316;SDS011;63913;51.492;10.368;2023-02-13T11:43:13;8.00;;;3.88;;
75316;SDS011;63913;51.492;10.368;2023-02-13T11:45:43;6.93;;;3.45;;
75316;SDS011;63913;51.492;10.368;2023-02-13T11:48:16;6.88;;;2.95;;
75316;SDS011;63913;51.492;10.368;2023-02-13T11:50:49;7.30;;;3.42;;
75316;SDS011;63913;51.492;10.368;2023-02-13T11:53:20;5.07;;;3.17;;
75316;SDS011;63913;51.492;10.368;2023-02-13T11:58:32;6.63;;;3.58;;
75316;SDS011;63913;51.492;10.368;2023-02-13T12:03:56;8.90;;;3.13;;
75316;SDS011;63913;51.492;10.368;2023-02-13T12:06:25;9.15;;;4.15;;
75316;SDS011;63913;51.492;10.368;2023-02-13T12:08:50;8.80;;;4.25;;
75316;SDS011;63913;51.492;10.368;2023-02-13T12:11:20;5.72;;;3.17;;
75316;SDS011;63913;51.492;10.368;2023-02-13T12:13:48;6.75;;;3.47;;
75316;SDS011;63913;51.492;10.368;2023-02-13T12:18:57;9.05;;;3.83;;
75316;SDS011;63913;51.492;10.368;2023-02-13T12:24:44;8.07;;;4.80;;
75316;SDS011;63913;51.492;10.368;2023-02-13T12:27:29;6.93;;;3.90;;
75316;SDS011;63913;51.492;10.368;2023-02-13T12:33:16;7.00;;;3.38;;
75316;SDS011;63913;51.492;10.368;2023-02-13T12:41:53;6.97;;;3.83;;
75316;SDS011;63913;51.492;10.368;2023-02-13T12:52:38;8.50;;;3.67;;
75316;SDS011;63913;51.492;10.368;2023-02-13T12:58:38;7.55;;;3.85;;
75316;SDS011;63913;51.492;10.368;2023-02-13T13:01:15;7.60;;;3.58;;
75316;SDS011;63913;51.492;10.368;2023-02-13T13:14:45;9.50;;;4.18;;
75316;SDS011;63913;51.492;10.368;2023-02-13T13:23:07;7.20;;;3.78;;
75316;SDS011;63913;51.492;10.368;2023-02-13T13:28:15;7.50;;;3.88;;
75316;SDS011;63913;51.492;10.368;2023-02-13T13:30:45;8.00;;;4.40;;
75316;SDS011;63913;51.492;10.368;2023-02-13T13:33:19;9.65;;;4.35;;
75316;SDS011;63913;51.492;10.368;2023-02-13T13:36:00;30.45;;;13.38;;
75316;SDS011;63913;51.492;10.368;2023-02-13T13:41:17;6.40;;;3.47;;
75316;SDS011;63913;51.492;10.368;2023-02-13T13:46:56;6.35;;;3.70;;
75316;SDS011;63913;51.492;10.368;2023-02-13T13:49:36;7.40;;;3.83;;
75316;SDS011;63913;51.492;10.368;2023-02-13T13:52:35;8.05;;;3.45;;
75316;SDS011;63913;51.492;10.368;2023-02-13T13:55:03;6.70;;;3.25;;
75316;SDS011;63913;51.492;10.368;2023-02-13T13:59:59;9.07;;;4.07;;
75316;SDS011;63913;51.492;10.368;2023-02-13T14:06:12;5.80;;;3.20;;
75316;SDS011;63913;51.492;10.368;2023-02-13T14:13:59;7.05;;;3.45;;
75316;SDS011;63913;51.492;10.368;2023-02-13T14:16:39;4.95;;;3.05;;
75316;SDS011;63913;51.492;10.368;2023-02-13T14:19:05;6.70;;;3.72;;
75316;SDS011;63913;51.492;10.368;2023-02-13T14:21:46;5.18;;;2.90;;
75316;SDS011;63913;51.492;10.368;2023-02-13T14:24:12;5.35;;;3.13;;
75316;SDS011;63913;51.492;10.368;2023-02-13T14:26:38;6.65;;;3.55;;
75316;SDS011;63913;51.492;10.368;2023-02-13T14:32:00;7.47;;;3.90;;
75316;SDS011;63913;51.492;10.368;2023-02-13T14:34:30;6.50;;;3.25;;
75316;SDS011;63913;51.492;10.368;2023-02-13T14:39:41;6.13;;;3.42;;
75316;SDS011;63913;51.492;10.368;2023-02-13T14:42:24;6.07;;;2.83;;
75316;SDS011;63913;51.492;10.368;2023-02-13T14:44:53;4.82;;;3.05;;
75316;SDS011;63913;51.492;10.368;2023-02-13T14:47:24;5.45;;;3.45;;
75316;SDS011;63913;51.492;10.368;2023-02-13T14:49:58;5.32;;;3.15;;
75316;SDS011;63913;51.492;10.368;2023-02-13T14:52:38;6.43;;;3.15;;
75316;SDS011;63913;51.492;10.368;2023-02-13T14:55:11;5.75;;;3.40;;
75316;SDS011;63913;51.492;10.368;2023-02-13T14:57:44;5.43;;;3.20;;
75316;SDS011;63913;51.492;10.368;2023-02-13T15:02:50;5.95;;;3.35;;
75316;SDS011;63913;51.492;10.368;2023-02-13T15:05:19;6.80;;;3.60;;
75316;SDS011;63913;51.492;10.368;2023-02-13T15:07:47;7.07;;;4.15;;
75316;SDS011;63913;51.492;10.368;2023-02-13T15:12:58;8.23;;;3.90;;
75316;SDS011;63913;51.492;10.368;2023-02-13T15:15:26;6.93;;;4.15;;
75316;SDS011;63913;51.492;10.368;2023-02-13T15:18:00;12.18;;;4.07;;
75316;SDS011;63913;51.492;10.368;2023-02-13T15:20:33;7.93;;;4.80;;
75316;SDS011;63913;51.492;10.368;2023-02-13T15:23:00;11.93;;;4.55;;
75316;SDS011;63913;51.492;10.368;2023-02-13T15:25:33;6.90;;;3.78;;
75316;SDS011;63913;51.492;10.368;2023-02-13T15:27:59;7.63;;;3.90;;
75316;SDS011;63913;51.492;10.368;2023-02-13T15:30:27;5.03;;;3.45;;
75316;SDS011;63913;51.492;10.368;2023-02-13T15:32:59;5.68;;;3.15;;
75316;SDS011;63913;51.492;10.368;2023-02-13T15:35:32;6.00;;;3.28;;
75316;SDS011;63913;51.492;10.368;2023-02-13T15:37:59;6.15;;;3.40;;
75316;SDS011;63913;51.492;10.368;2023-02-13T15:40:42;5.75;;;3.40;;
75316;SDS011;63913;51.492;10.368;2023-02-13T15:43:13;7.53;;;3.47;;
75316;SDS011;63913;51.492;10.368;2023-02-13T15:45:46;6.63;;;3.50;;
75316;SDS011;63913;51.492;10.368;2023-02-13T15:48:15;5.70;;;3.40;;
75316;SDS011;63913;51.492;10.368;2023-02-13T15:50:41;6.10;;;4.00;;
75316;SDS011;63913;51.492;10.368;2023-02-13T15:53:09;7.93;;;3.53;;
75316;SDS011;63913;51.492;10.368;2023-02-13T15:55:38;10.98;;;5.47;;
75316;SDS011;63913;51.492;10.368;2023-02-13T15:58:04;7.72;;;3.65;;
75316;SDS011;63913;51.492;10.368;2023-02-13T16:00:32;11.30;;;5.15;;
75316;SDS011;63913;51.492;10.368;2023-02-13T16:03:00;8.98;;;5.00;;
75316;SDS011;63913;51.492;10.368;2023-02-13T16:05:29;8.73;;;3.90;;
75316;SDS011;63913;51.492;10.368;2023-02-13T16:07:59;10.18;;;4.93;;
75316;SDS011;63913;51.492;10.368;2023-02-13T16:10:31;6.63;;;3.60;;
75316;SDS011;63913;51.492;10.368;2023-02-13T16:13:00;6.70;;;3.50;;
75316;SDS011;63913;51.492;10.368;2023-02-13T16:15:29;9.02;;;3.85;;
75316;SDS011;63913;51.492;10.368;2023-02-13T16:17:57;6.85;;;3.70;;
75316;SDS011;63913;51.492;10.368;2023-02-13T16:20:24;7.50;;;4.22;;
75316;SDS011;63913;51.492;10.368;2023-02-13T16:22:52;6.63;;;3.90;;
75316;SDS011;63913;51.492;10.368;2023-02-13T16:25:24;7.20;;;4.03;;
75316;SDS011;63913;51.492;10.368;2023-02-13T16:28:02;7.72;;;4.30;;
75316;SDS011;63913;51.492;10.368;2023-02-13T16:30:57;7.93;;;3.90;;
75316;SDS011;63913;51.492;10.368;2023-02-13T16:33:27;9.48;;;4.40;;
75316;SDS011;63913;51.492;10.368;2023-02-13T16:41:05;9.18;;;4.72;;
75316;SDS011;63913;51.492;10.368;2023-02-13T16:43:56;6.32;;;3.70;;
75316;SDS011;63913;51.492;10.368;2023-02-13T16:51:32;7.45;;;3.95;;
75316;SDS011;63913;51.492;10.368;2023-02-13T16:54:14;9.30;;;4.75;;
75316;SDS011;63913;51.492;10.368;2023-02-13T16:56:43;9.13;;;5.07;;
75316;SDS011;63913;51.492;10.368;2023-02-13T16:59:19;10.00;;;4.10;;
75316;SDS011;63913;51.492;10.368;2023-02-13T17:02:13;10.15;;;4.70;;
75316;SDS011;63913;51.492;10.368;2023-02-13T17:10:30;17.02;;;7.43;;
75316;SDS011;63913;51.492;10.368;2023-02-13T17:12:59;24.65;;;9.15;;
75316;SDS011;63913;51.492;10.368;2023-02-13T17:15:27;15.27;;;7.70;;
75316;SDS011;63913;51.492;10.368;2023-02-13T17:17:54;10.35;;;5.13;;